New London, IA (52645)

2:31 PM CDT on August 03, 2015 (GMT -0500)
APRSWXNET | | Change Station
CLOSE
Current Station
Personal Weather Station
Location: New London, IA
Elevation: 813 ft
Nearby Weather Stations

Elev 813 ft 40.97 °N, 91.34 °W | Updated 25 minutes ago

Clear
Clear
78 °F
Feels Like 80 °F
N
5
Wind Variable Wind from NW
Gusts 9.0 mph

Today
High -- | Low -- °F
--% Chance of Precip.
Yesterday
High -- | Low -- °F
Precip. -- in
6:03 AM 8:19 PM
Waning Gibbous, 84% visible
Pressure 29.95 in
Visibility 7.0 miles
Clouds Clear
Heat Index 80 °F
Dew Point 62 °F
Humidity 57%
Rainfall in
Snow Depth Not available.
UV 10 out of 12
Pollen 6.10 out of 12
Air Quality Not available.
Flu Activity Not available.
METAR KMPZ 031915Z AUTO 35005KT 7SM CLR 28/09 A2995 RMK AO2 T02780092

More Conditions Fewer Conditions

Pressure 29.95 in
Visibility 7.0 miles
Clouds Clear
Heat Index 80 °F
Dew Point 62 °F
Humidity 57%
Rainfall in
Snow Depth Not available.
UV 10 out of 12
Pollen 6.10 out of 12
Air Quality Not available.
Flu Activity Not available.
METAR KMPZ 031915Z AUTO 35005KT 7SM CLR 28/09 A2995 RMK AO2 T02780092

More Conditions Fewer Conditions

10-Day Weather Forecast

×

Almanac

Astronomy

Aug. 03, 2015 Rise Set
Actual Time
Civil Twilight
Nautical Twilight
Astronomical Twilight
Moon
Length of Visible Light
Length of Day
Tomorrow will be .
, % of the Moon is Illuminated

Today's Extremes

State Highs State Lows

Community

WunderPhotos

Upload Photos

1,843,714 photos uploaded!

WunderBlogs® & News

Nearby

Air Quality

  Air Quality AQ Index Pollutant
Not available.

Snow Depth

Station Depth Elevation

Earthquake Activity

City Distance Mag. Time & Date
Minimum magnitude displayed is 2.5.

Coastal Water Temperatures

Place Temperature

Stations

Nearby Weather Stations

Station Location Temp. Windchill Dew Point Humidity Wind Precip. Elev Updated Type